sensor_id;sensor_type;location;lat;lon;timestamp;P1;durP1;ratioP1;P2;durP2;ratioP2
22955;SDS011;40888;48.148;11.526;2023-04-30T00:02:23;9.37;;;6.67;;
22955;SDS011;40888;48.148;11.526;2023-04-30T00:04:49;8.30;;;5.90;;
22955;SDS011;40888;48.148;11.526;2023-04-30T00:07:15;6.13;;;5.47;;
22955;SDS011;40888;48.148;11.526;2023-04-30T00:09:41;6.83;;;5.60;;
22955;SDS011;40888;48.148;11.526;2023-04-30T00:12:06;6.83;;;5.73;;
22955;SDS011;40888;48.148;11.526;2023-04-30T00:14:32;7.67;;;5.93;;
22955;SDS011;40888;48.148;11.526;2023-04-30T00:16:58;8.50;;;5.73;;
22955;SDS011;40888;48.148;11.526;2023-04-30T00:19:24;12.23;;;7.13;;
22955;SDS011;40888;48.148;11.526;2023-04-30T00:21:49;9.67;;;7.13;;
22955;SDS011;40888;48.148;11.526;2023-04-30T00:24:15;9.83;;;7.33;;
22955;SDS011;40888;48.148;11.526;2023-04-30T00:26:41;10.13;;;6.47;;
22955;SDS011;40888;48.148;11.526;2023-04-30T00:29:08;9.50;;;5.97;;
22955;SDS011;40888;48.148;11.526;2023-04-30T00:31:34;7.27;;;5.93;;
22955;SDS011;40888;48.148;11.526;2023-04-30T00:34:00;6.63;;;5.30;;
22955;SDS011;40888;48.148;11.526;2023-04-30T00:36:26;5.60;;;4.67;;
22955;SDS011;40888;48.148;11.526;2023-04-30T00:38:51;7.13;;;6.07;;
22955;SDS011;40888;48.148;11.526;2023-04-30T00:41:17;7.83;;;6.47;;
22955;SDS011;40888;48.148;11.526;2023-04-30T00:43:43;6.70;;;5.30;;
22955;SDS011;40888;48.148;11.526;2023-04-30T00:46:11;9.43;;;6.30;;
22955;SDS011;40888;48.148;11.526;2023-04-30T00:48:37;8.70;;;7.10;;
22955;SDS011;40888;48.148;11.526;2023-04-30T00:51:02;7.67;;;5.47;;
22955;SDS011;40888;48.148;11.526;2023-04-30T00:53:29;6.83;;;4.70;;
22955;SDS011;40888;48.148;11.526;2023-04-30T00:55:55;6.37;;;5.07;;
22955;SDS011;40888;48.148;11.526;2023-04-30T00:58:21;7.10;;;6.13;;
22955;SDS011;40888;48.148;11.526;2023-04-30T01:00:47;8.30;;;6.40;;
22955;SDS011;40888;48.148;11.526;2023-04-30T01:03:13;9.27;;;6.47;;
22955;SDS011;40888;48.148;11.526;2023-04-30T01:05:40;6.03;;;4.90;;
22955;SDS011;40888;48.148;11.526;2023-04-30T01:08:06;6.97;;;6.23;;
22955;SDS011;40888;48.148;11.526;2023-04-30T01:10:40;6.90;;;5.00;;
22955;SDS011;40888;48.148;11.526;2023-04-30T01:13:35;5.93;;;4.63;;
22955;SDS011;40888;48.148;11.526;2023-04-30T01:16:22;5.80;;;4.63;;
22955;SDS011;40888;48.148;11.526;2023-04-30T01:18:58;6.30;;;5.27;;
22955;SDS011;40888;48.148;11.526;2023-04-30T01:21:29;7.90;;;5.40;;
22955;SDS011;40888;48.148;11.526;2023-04-30T01:29:16;7.93;;;5.63;;
22955;SDS011;40888;48.148;11.526;2023-04-30T01:31:43;6.70;;;5.57;;
22955;SDS011;40888;48.148;11.526;2023-04-30T01:34:09;9.40;;;7.77;;
22955;SDS011;40888;48.148;11.526;2023-04-30T01:42:21;10.40;;;7.87;;
22955;SDS011;40888;48.148;11.526;2023-04-30T01:44:53;10.33;;;8.40;;
22955;SDS011;40888;48.148;11.526;2023-04-30T01:47:30;10.33;;;7.97;;
22955;SDS011;40888;48.148;11.526;2023-04-30T01:53:04;8.67;;;6.53;;
22955;SDS011;40888;48.148;11.526;2023-04-30T01:55:34;7.40;;;5.73;;
22955;SDS011;40888;48.148;11.526;2023-04-30T01:58:08;7.17;;;5.80;;
22955;SDS011;40888;48.148;11.526;2023-04-30T02:00:36;7.93;;;6.57;;
22955;SDS011;40888;48.148;11.526;2023-04-30T02:03:02;10.07;;;6.47;;
22955;SDS011;40888;48.148;11.526;2023-04-30T02:05:28;7.73;;;6.50;;
22955;SDS011;40888;48.148;11.526;2023-04-30T02:07:54;10.67;;;7.90;;
22955;SDS011;40888;48.148;11.526;2023-04-30T02:10:21;9.73;;;7.87;;
22955;SDS011;40888;48.148;11.526;2023-04-30T02:12:48;8.33;;;6.57;;
22955;SDS011;40888;48.148;11.526;2023-04-30T02:15:13;10.50;;;7.70;;
22955;SDS011;40888;48.148;11.526;2023-04-30T02:17:39;10.87;;;7.60;;
22955;SDS011;40888;48.148;11.526;2023-04-30T02:20:05;8.93;;;6.53;;
22955;SDS011;40888;48.148;11.526;2023-04-30T02:22:32;10.40;;;9.20;;
22955;SDS011;40888;48.148;11.526;2023-04-30T02:24:58;12.30;;;8.30;;
22955;SDS011;40888;48.148;11.526;2023-04-30T02:27:24;9.27;;;6.90;;
22955;SDS011;40888;48.148;11.526;2023-04-30T02:29:50;7.87;;;6.17;;
22955;SDS011;40888;48.148;11.526;2023-04-30T02:32:16;8.23;;;6.20;;
22955;SDS011;40888;48.148;11.526;2023-04-30T02:34:42;11.43;;;8.80;;
22955;SDS011;40888;48.148;11.526;2023-04-30T02:37:08;9.23;;;7.97;;
22955;SDS011;40888;48.148;11.526;2023-04-30T02:39:34;9.90;;;6.50;;
22955;SDS011;40888;48.148;11.526;2023-04-30T02:42:00;11.67;;;8.67;;
22955;SDS011;40888;48.148;11.526;2023-04-30T02:44:26;9.50;;;7.53;;
22955;SDS011;40888;48.148;11.526;2023-04-30T02:46:52;9.27;;;6.97;;
22955;SDS011;40888;48.148;11.526;2023-04-30T02:49:18;8.57;;;6.30;;
22955;SDS011;40888;48.148;11.526;2023-04-30T02:51:44;9.20;;;7.37;;
22955;SDS011;40888;48.148;11.526;2023-04-30T02:54:09;13.13;;;7.10;;
22955;SDS011;40888;48.148;11.526;2023-04-30T02:56:35;8.13;;;6.13;;
22955;SDS011;40888;48.148;11.526;2023-04-30T02:59:03;9.60;;;8.07;;
22955;SDS011;40888;48.148;11.526;2023-04-30T03:01:28;11.77;;;8.00;;
22955;SDS011;40888;48.148;11.526;2023-04-30T03:03:54;12.37;;;9.53;;
22955;SDS011;40888;48.148;11.526;2023-04-30T03:06:20;12.57;;;9.70;;
22955;SDS011;40888;48.148;11.526;2023-04-30T03:08:45;10.60;;;8.30;;
22955;SDS011;40888;48.148;11.526;2023-04-30T03:11:12;9.20;;;6.67;;
22955;SDS011;40888;48.148;11.526;2023-04-30T03:13:38;12.33;;;9.23;;
22955;SDS011;40888;48.148;11.526;2023-04-30T03:16:04;11.43;;;9.03;;
22955;SDS011;40888;48.148;11.526;2023-04-30T03:18:30;12.97;;;9.03;;
22955;SDS011;40888;48.148;11.526;2023-04-30T03:20:56;10.70;;;8.40;;
22955;SDS011;40888;48.148;11.526;2023-04-30T03:23:22;8.17;;;6.53;;
22955;SDS011;40888;48.148;11.526;2023-04-30T03:25:48;9.70;;;6.73;;
22955;SDS011;40888;48.148;11.526;2023-04-30T03:28:15;7.77;;;6.40;;
22955;SDS011;40888;48.148;11.526;2023-04-30T03:30:41;9.03;;;6.87;;
22955;SDS011;40888;48.148;11.526;2023-04-30T03:33:07;10.37;;;7.47;;
22955;SDS011;40888;48.148;11.526;2023-04-30T03:35:33;7.97;;;6.80;;
22955;SDS011;40888;48.148;11.526;2023-04-30T03:37:59;11.30;;;9.30;;
22955;SDS011;40888;48.148;11.526;2023-04-30T03:40:26;9.70;;;7.97;;
22955;SDS011;40888;48.148;11.526;2023-04-30T03:42:52;12.10;;;9.40;;
22955;SDS011;40888;48.148;11.526;2023-04-30T03:45:18;12.03;;;9.90;;
22955;SDS011;40888;48.148;11.526;2023-04-30T03:47:43;11.27;;;8.57;;
22955;SDS011;40888;48.148;11.526;2023-04-30T03:50:10;12.80;;;9.97;;
22955;SDS011;40888;48.148;11.526;2023-04-30T03:52:36;15.30;;;10.37;;
22955;SDS011;40888;48.148;11.526;2023-04-30T03:55:02;12.37;;;8.93;;
22955;SDS011;40888;48.148;11.526;2023-04-30T03:57:29;12.83;;;9.37;;
22955;SDS011;40888;48.148;11.526;2023-04-30T03:59:55;12.70;;;9.70;;
22955;SDS011;40888;48.148;11.526;2023-04-30T04:02:20;17.53;;;11.77;;
22955;SDS011;40888;48.148;11.526;2023-04-30T04:04:47;11.00;;;8.93;;
22955;SDS011;40888;48.148;11.526;2023-04-30T04:07:13;9.53;;;7.77;;
22955;SDS011;40888;48.148;11.526;2023-04-30T04:09:39;10.77;;;7.13;;
22955;SDS011;40888;48.148;11.526;2023-04-30T04:12:05;9.50;;;7.63;;
22955;SDS011;40888;48.148;11.526;2023-04-30T04:14:30;8.80;;;7.67;;
22955;SDS011;40888;48.148;11.526;2023-04-30T04:16:56;12.60;;;9.67;;
22955;SDS011;40888;48.148;11.526;2023-04-30T04:19:24;11.83;;;8.73;;
22955;SDS011;40888;48.148;11.526;2023-04-30T04:21:50;12.30;;;8.50;;
22955;SDS011;40888;48.148;11.526;2023-04-30T04:24:16;9.07;;;7.63;;
22955;SDS011;40888;48.148;11.526;2023-04-30T04:26:42;9.07;;;8.27;;
22955;SDS011;40888;48.148;11.526;2023-04-30T04:29:08;8.30;;;7.13;;
22955;SDS011;40888;48.148;11.526;2023-04-30T04:31:34;13.27;;;11.83;;
22955;SDS011;40888;48.148;11.526;2023-04-30T04:34:01;14.47;;;12.87;;
22955;SDS011;40888;48.148;11.526;2023-04-30T04:36:28;11.23;;;9.80;;
22955;SDS011;40888;48.148;11.526;2023-04-30T04:38:55;9.40;;;8.50;;
22955;SDS011;40888;48.148;11.526;2023-04-30T04:41:27;12.47;;;10.90;;
22955;SDS011;40888;48.148;11.526;2023-04-30T04:44:02;10.67;;;9.23;;
22955;SDS011;40888;48.148;11.526;2023-04-30T04:46:29;9.00;;;8.10;;
22955;SDS011;40888;48.148;11.526;2023-04-30T04:48:56;10.30;;;9.30;;
22955;SDS011;40888;48.148;11.526;2023-04-30T04:51:22;13.87;;;12.47;;
22955;SDS011;40888;48.148;11.526;2023-04-30T04:53:48;12.37;;;10.93;;
22955;SDS011;40888;48.148;11.526;2023-04-30T04:56:14;11.50;;;10.30;;
22955;SDS011;40888;48.148;11.526;2023-04-30T04:58:40;13.03;;;11.73;;
22955;SDS011;40888;48.148;11.526;2023-04-30T05:01:07;17.23;;;14.50;;
22955;SDS011;40888;48.148;11.526;2023-04-30T05:03:33;11.80;;;10.67;;
22955;SDS011;40888;48.148;11.526;2023-04-30T05:06:03;11.60;;;10.40;;
22955;SDS011;40888;48.148;11.526;2023-04-30T05:08:29;11.00;;;10.00;;
22955;SDS011;40888;48.148;11.526;2023-04-30T05:10:55;11.73;;;10.57;;
22955;SDS011;40888;48.148;11.526;2023-04-30T05:13:21;8.97;;;8.17;;
22955;SDS011;40888;48.148;11.526;2023-04-30T05:15:50;9.03;;;7.60;;
22955;SDS011;40888;48.148;11.526;2023-04-30T05:18:17;8.93;;;8.13;;
22955;SDS011;40888;48.148;11.526;2023-04-30T05:20:43;9.87;;;7.43;;
22955;SDS011;40888;48.148;11.526;2023-04-30T05:23:09;10.57;;;7.40;;
22955;SDS011;40888;48.148;11.526;2023-04-30T05:25:35;9.60;;;7.53;;
22955;SDS011;40888;48.148;11.526;2023-04-30T05:28:01;8.90;;;7.73;;
22955;SDS011;40888;48.148;11.526;2023-04-30T05:30:27;10.00;;;7.40;;
22955;SDS011;40888;48.148;11.526;2023-04-30T05:32:54;9.87;;;8.77;;
22955;SDS011;40888;48.148;11.526;2023-04-30T05:35:20;9.87;;;8.00;;
22955;SDS011;40888;48.148;11.526;2023-04-30T05:37:45;9.13;;;7.27;;
22955;SDS011;40888;48.148;11.526;2023-04-30T05:40:11;9.93;;;7.03;;
22955;SDS011;40888;48.148;11.526;2023-04-30T05:42:37;9.17;;;7.40;;
22955;SDS011;40888;48.148;11.526;2023-04-30T05:45:05;9.57;;;7.80;;
22955;SDS011;40888;48.148;11.526;2023-04-30T05:47:31;8.83;;;6.90;;
22955;SDS011;40888;48.148;11.526;2023-04-30T05:49:57;8.70;;;6.97;;
22955;SDS011;40888;48.148;11.526;2023-04-30T05:52:23;7.83;;;6.90;;
22955;SDS011;40888;48.148;11.526;2023-04-30T05:54:49;8.13;;;7.20;;
22955;SDS011;40888;48.148;11.526;2023-04-30T05:57:14;8.47;;;6.97;;
22955;SDS011;40888;48.148;11.526;2023-04-30T05:59:40;8.90;;;7.47;;
22955;SDS011;40888;48.148;11.526;2023-04-30T06:02:06;8.00;;;7.20;;
22955;SDS011;40888;48.148;11.526;2023-04-30T06:04:33;9.50;;;7.33;;
22955;SDS011;40888;48.148;11.526;2023-04-30T06:06:59;9.37;;;7.37;;
22955;SDS011;40888;48.148;11.526;2023-04-30T06:09:25;8.77;;;7.27;;
22955;SDS011;40888;48.148;11.526;2023-04-30T06:11:50;9.43;;;7.07;;
22955;SDS011;40888;48.148;11.526;2023-04-30T06:14:17;8.43;;;6.63;;
22955;SDS011;40888;48.148;11.526;2023-04-30T06:16:44;9.70;;;6.90;;
22955;SDS011;40888;48.148;11.526;2023-04-30T06:19:10;9.73;;;7.57;;
22955;SDS011;40888;48.148;11.526;2023-04-30T06:21:36;7.87;;;6.87;;
22955;SDS011;40888;48.148;11.526;2023-04-30T06:24:02;11.77;;;8.40;;
22955;SDS011;40888;48.148;11.526;2023-04-30T06:26:29;10.03;;;7.90;;
22955;SDS011;40888;48.148;11.526;2023-04-30T06:28:54;8.63;;;6.60;;
22955;SDS011;40888;48.148;11.526;2023-04-30T06:31:21;8.23;;;6.50;;
22955;SDS011;40888;48.148;11.526;2023-04-30T06:33:47;9.47;;;8.03;;
22955;SDS011;40888;48.148;11.526;2023-04-30T06:36:12;8.97;;;7.20;;
22955;SDS011;40888;48.148;11.526;2023-04-30T06:38:39;8.03;;;6.03;;
22955;SDS011;40888;48.148;11.526;2023-04-30T06:41:04;8.77;;;6.40;;
22955;SDS011;40888;48.148;11.526;2023-04-30T06:43:30;7.73;;;6.90;;
22955;SDS011;40888;48.148;11.526;2023-04-30T06:45:56;6.37;;;5.63;;
22955;SDS011;40888;48.148;11.526;2023-04-30T06:48:22;9.67;;;6.10;;
22955;SDS011;40888;48.148;11.526;2023-04-30T06:50:47;7.90;;;6.67;;
22955;SDS011;40888;48.148;11.526;2023-04-30T06:53:14;6.53;;;5.83;;
22955;SDS011;40888;48.148;11.526;2023-04-30T06:55:40;6.93;;;6.23;;
22955;SDS011;40888;48.148;11.526;2023-04-30T06:58:07;8.43;;;6.40;;
22955;SDS011;40888;48.148;11.526;2023-04-30T07:00:33;8.17;;;6.57;;
22955;SDS011;40888;48.148;11.526;2023-04-30T07:02:59;7.63;;;5.70;;
22955;SDS011;40888;48.148;11.526;2023-04-30T07:05:30;9.17;;;7.03;;
22955;SDS011;40888;48.148;11.526;2023-04-30T07:07:57;7.70;;;5.77;;
22955;SDS011;40888;48.148;11.526;2023-04-30T07:10:25;6.87;;;5.73;;
22955;SDS011;40888;48.148;11.526;2023-04-30T07:12:51;8.97;;;6.87;;
22955;SDS011;40888;48.148;11.526;2023-04-30T07:15:17;8.43;;;7.43;;
22955;SDS011;40888;48.148;11.526;2023-04-30T07:17:42;7.90;;;6.67;;
22955;SDS011;40888;48.148;11.526;2023-04-30T07:20:08;6.90;;;6.13;;
22955;SDS011;40888;48.148;11.526;2023-04-30T07:22:35;6.47;;;5.87;;
22955;SDS011;40888;48.148;11.526;2023-04-30T07:25:00;7.57;;;6.23;;
22955;SDS011;40888;48.148;11.526;2023-04-30T07:27:26;8.30;;;7.50;;
22955;SDS011;40888;48.148;11.526;2023-04-30T07:29:52;6.73;;;5.73;;
22955;SDS011;40888;48.148;11.526;2023-04-30T07:32:18;8.27;;;6.50;;
22955;SDS011;40888;48.148;11.526;2023-04-30T07:34:45;7.50;;;6.20;;
22955;SDS011;40888;48.148;11.526;2023-04-30T07:37:10;7.43;;;6.70;;
22955;SDS011;40888;48.148;11.526;2023-04-30T07:39:36;6.43;;;5.37;;
22955;SDS011;40888;48.148;11.526;2023-04-30T07:42:02;6.67;;;6.00;;
22955;SDS011;40888;48.148;11.526;2023-04-30T07:44:29;7.20;;;5.90;;
22955;SDS011;40888;48.148;11.526;2023-04-30T07:46:55;7.83;;;6.03;;
22955;SDS011;40888;48.148;11.526;2023-04-30T07:49:21;7.00;;;6.30;;
22955;SDS011;40888;48.148;11.526;2023-04-30T07:51:50;6.50;;;5.80;;
22955;SDS011;40888;48.148;11.526;2023-04-30T07:54:16;7.23;;;6.50;;
22955;SDS011;40888;48.148;11.526;2023-04-30T07:56:41;7.83;;;6.23;;
22955;SDS011;40888;48.148;11.526;2023-04-30T07:59:07;5.93;;;5.33;;
22955;SDS011;40888;48.148;11.526;2023-04-30T08:01:33;7.50;;;5.60;;
22955;SDS011;40888;48.148;11.526;2023-04-30T08:03:59;7.40;;;6.37;;
22955;SDS011;40888;48.148;11.526;2023-04-30T08:06:25;5.93;;;5.37;;
22955;SDS011;40888;48.148;11.526;2023-04-30T08:08:54;6.37;;;5.63;;
22955;SDS011;40888;48.148;11.526;2023-04-30T08:11:20;6.00;;;5.40;;
22955;SDS011;40888;48.148;11.526;2023-04-30T08:13:45;8.17;;;7.23;;
22955;SDS011;40888;48.148;11.526;2023-04-30T08:16:11;7.97;;;6.20;;
22955;SDS011;40888;48.148;11.526;2023-04-30T08:18:37;7.10;;;6.40;;
22955;SDS011;40888;48.148;11.526;2023-04-30T08:21:03;8.63;;;7.80;;
22955;SDS011;40888;48.148;11.526;2023-04-30T08:23:30;8.07;;;7.27;;
22955;SDS011;40888;48.148;11.526;2023-04-30T08:25:56;9.53;;;8.20;;
22955;SDS011;40888;48.148;11.526;2023-04-30T08:28:21;9.70;;;8.80;;
22955;SDS011;40888;48.148;11.526;2023-04-30T08:30:47;8.70;;;7.90;;
22955;SDS011;40888;48.148;11.526;2023-04-30T08:33:13;8.37;;;7.57;;
22955;SDS011;40888;48.148;11.526;2023-04-30T08:35:39;8.47;;;7.67;;
22955;SDS011;40888;48.148;11.526;2023-04-30T08:38:04;7.70;;;6.73;;
22955;SDS011;40888;48.148;11.526;2023-04-30T08:40:30;6.50;;;5.90;;
22955;SDS011;40888;48.148;11.526;2023-04-30T08:43:06;6.37;;;5.77;;
22955;SDS011;40888;48.148;11.526;2023-04-30T08:45:33;7.57;;;6.83;;
22955;SDS011;40888;48.148;11.526;2023-04-30T08:48:03;5.80;;;5.20;;
22955;SDS011;40888;48.148;11.526;2023-04-30T08:50:32;7.27;;;6.57;;
22955;SDS011;40888;48.148;11.526;2023-04-30T08:52:59;9.67;;;7.73;;
22955;SDS011;40888;48.148;11.526;2023-04-30T08:55:26;7.13;;;6.43;;
22955;SDS011;40888;48.148;11.526;2023-04-30T08:57:52;6.60;;;5.43;;
22955;SDS011;40888;48.148;11.526;2023-04-30T09:00:18;6.53;;;5.93;;
22955;SDS011;40888;48.148;11.526;2023-04-30T09:02:44;5.27;;;4.77;;
22955;SDS011;40888;48.148;11.526;2023-04-30T09:05:12;5.77;;;5.20;;
22955;SDS011;40888;48.148;11.526;2023-04-30T09:07:43;5.57;;;5.07;;
22955;SDS011;40888;48.148;11.526;2023-04-30T09:12:44;5.60;;;5.03;;
22955;SDS011;40888;48.148;11.526;2023-04-30T09:15:29;5.73;;;5.13;;
22955;SDS011;40888;48.148;11.526;2023-04-30T09:18:05;5.13;;;4.53;;
22955;SDS011;40888;48.148;11.526;2023-04-30T09:20:57;5.37;;;4.87;;
22955;SDS011;40888;48.148;11.526;2023-04-30T09:23:26;5.80;;;4.40;;
22955;SDS011;40888;48.148;11.526;2023-04-30T09:25:52;6.10;;;5.50;;
22955;SDS011;40888;48.148;11.526;2023-04-30T09:28:18;5.20;;;4.33;;
22955;SDS011;40888;48.148;11.526;2023-04-30T09:30:48;5.47;;;4.97;;
22955;SDS011;40888;48.148;11.526;2023-04-30T09:33:14;4.80;;;4.20;;
22955;SDS011;40888;48.148;11.526;2023-04-30T09:35:40;5.50;;;5.00;;
22955;SDS011;40888;48.148;11.526;2023-04-30T09:38:06;5.40;;;4.63;;
22955;SDS011;40888;48.148;11.526;2023-04-30T09:40:36;4.77;;;4.27;;
22955;SDS011;40888;48.148;11.526;2023-04-30T09:43:04;4.03;;;3.63;;
22955;SDS011;40888;48.148;11.526;2023-04-30T09:45:43;6.17;;;4.80;;
22955;SDS011;40888;48.148;11.526;2023-04-30T09:48:16;5.83;;;5.23;;
22955;SDS011;40888;48.148;11.526;2023-04-30T09:50:42;5.23;;;4.53;;
22955;SDS011;40888;48.148;11.526;2023-04-30T09:53:14;4.43;;;3.90;;
22955;SDS011;40888;48.148;11.526;2023-04-30T09:55:43;4.27;;;3.87;;
22955;SDS011;40888;48.148;11.526;2023-04-30T09:58:11;4.77;;;4.37;;
22955;SDS011;40888;48.148;11.526;2023-04-30T10:00:37;6.83;;;5.43;;
22955;SDS011;40888;48.148;11.526;2023-04-30T10:03:10;6.33;;;4.77;;
22955;SDS011;40888;48.148;11.526;2023-04-30T10:05:41;6.00;;;4.87;;
22955;SDS011;40888;48.148;11.526;2023-04-30T10:10:56;4.73;;;4.33;;
22955;SDS011;40888;48.148;11.526;2023-04-30T10:13:25;4.90;;;3.97;;
22955;SDS011;40888;48.148;11.526;2023-04-30T10:15:58;4.90;;;4.37;;
22955;SDS011;40888;48.148;11.526;2023-04-30T10:18:30;4.93;;;4.50;;
22955;SDS011;40888;48.148;11.526;2023-04-30T10:21:03;7.70;;;5.40;;
22955;SDS011;40888;48.148;11.526;2023-04-30T10:23:36;5.73;;;4.83;;
22955;SDS011;40888;48.148;11.526;2023-04-30T10:26:04;5.97;;;5.20;;
22955;SDS011;40888;48.148;11.526;2023-04-30T10:28:31;6.20;;;5.33;;
22955;SDS011;40888;48.148;11.526;2023-04-30T10:30:57;5.03;;;4.53;;
22955;SDS011;40888;48.148;11.526;2023-04-30T10:36:13;5.03;;;4.53;;
22955;SDS011;40888;48.148;11.526;2023-04-30T10:38:48;4.60;;;4.07;;
22955;SDS011;40888;48.148;11.526;2023-04-30T10:41:14;4.13;;;3.73;;
22955;SDS011;40888;48.148;11.526;2023-04-30T10:43:43;4.73;;;4.27;;
22955;SDS011;40888;48.148;11.526;2023-04-30T10:46:11;4.73;;;4.13;;
22955;SDS011;40888;48.148;11.526;2023-04-30T10:48:48;6.10;;;4.40;;
22955;SDS011;40888;48.148;11.526;2023-04-30T10:51:14;6.40;;;4.03;;
22955;SDS011;40888;48.148;11.526;2023-04-30T10:53:40;4.30;;;3.90;;
22955;SDS011;40888;48.148;11.526;2023-04-30T10:56:06;3.73;;;3.43;;
22955;SDS011;40888;48.148;11.526;2023-04-30T10:58:36;4.67;;;3.17;;
22955;SDS011;40888;48.148;11.526;2023-04-30T11:01:05;4.03;;;3.43;;
22955;SDS011;40888;48.148;11.526;2023-04-30T11:03:33;4.63;;;3.50;;
22955;SDS011;40888;48.148;11.526;2023-04-30T11:06:00;4.27;;;3.43;;
22955;SDS011;40888;48.148;11.526;2023-04-30T11:08:36;4.10;;;3.80;;
22955;SDS011;40888;48.148;11.526;2023-04-30T11:11:03;3.63;;;3.33;;
22955;SDS011;40888;48.148;11.526;2023-04-30T11:13:44;4.47;;;3.60;;
22955;SDS011;40888;48.148;11.526;2023-04-30T11:16:29;4.67;;;4.03;;
22955;SDS011;40888;48.148;11.526;2023-04-30T11:18:56;5.20;;;3.27;;
22955;SDS011;40888;48.148;11.526;2023-04-30T11:21:40;4.75;;;4.35;;
22955;SDS011;40888;48.148;11.526;2023-04-30T11:24:48;3.43;;;3.13;;
22955;SDS011;40888;48.148;11.526;2023-04-30T11:27:39;4.07;;;2.90;;
22955;SDS011;40888;48.148;11.526;2023-04-30T11:30:11;3.43;;;3.13;;
22955;SDS011;40888;48.148;11.526;2023-04-30T11:32:44;3.83;;;3.38;;
22955;SDS011;40888;48.148;11.526;2023-04-30T11:35:11;7.95;;;4.53;;
22955;SDS011;40888;48.148;11.526;2023-04-30T11:37:39;6.78;;;4.15;;
22955;SDS011;40888;48.148;11.526;2023-04-30T11:40:10;5.05;;;3.55;;
22955;SDS011;40888;48.148;11.526;2023-04-30T11:42:37;4.03;;;3.30;;
22955;SDS011;40888;48.148;11.526;2023-04-30T11:47:38;2.72;;;2.53;;
22955;SDS011;40888;48.148;11.526;2023-04-30T11:50:07;4.03;;;3.67;;
22955;SDS011;40888;48.148;11.526;2023-04-30T11:52:34;3.53;;;3.30;;
22955;SDS011;40888;48.148;11.526;2023-04-30T11:55:05;3.85;;;3.55;;
22955;SDS011;40888;48.148;11.526;2023-04-30T11:57:39;4.38;;;3.92;;
22955;SDS011;40888;48.148;11.526;2023-04-30T12:00:09;4.60;;;3.25;;
22955;SDS011;40888;48.148;11.526;2023-04-30T12:02:37;3.90;;;2.78;;
22955;SDS011;40888;48.148;11.526;2023-04-30T12:05:04;3.55;;;2.90;;
22955;SDS011;40888;48.148;11.526;2023-04-30T12:07:36;3.58;;;2.90;;
22955;SDS011;40888;48.148;11.526;2023-04-30T12:10:02;4.57;;;3.72;;
22955;SDS011;40888;48.148;11.526;2023-04-30T12:12:28;4.00;;;3.70;;
22955;SDS011;40888;48.148;11.526;2023-04-30T12:14:54;4.72;;;4.20;;
22955;SDS011;40888;48.148;11.526;2023-04-30T12:17:30;3.10;;;2.83;;
22955;SDS011;40888;48.148;11.526;2023-04-30T12:19:57;3.20;;;3.00;;
22955;SDS011;40888;48.148;11.526;2023-04-30T12:22:23;3.35;;;3.03;;
22955;SDS011;40888;48.148;11.526;2023-04-30T12:24:49;3.47;;;3.17;;
22955;SDS011;40888;48.148;11.526;2023-04-30T12:27:15;4.83;;;3.33;;
22955;SDS011;40888;48.148;11.526;2023-04-30T12:29:44;4.25;;;3.20;;
22955;SDS011;40888;48.148;11.526;2023-04-30T12:32:11;4.93;;;3.70;;
22955;SDS011;40888;48.148;11.526;2023-04-30T12:34:40;3.13;;;2.93;;
22955;SDS011;40888;48.148;11.526;2023-04-30T12:37:06;4.17;;;3.77;;
22955;SDS011;40888;48.148;11.526;2023-04-30T12:39:32;3.70;;;3.40;;
22955;SDS011;40888;48.148;11.526;2023-04-30T12:41:59;4.00;;;3.60;;
22955;SDS011;40888;48.148;11.526;2023-04-30T12:44:26;3.50;;;3.20;;
22955;SDS011;40888;48.148;11.526;2023-04-30T12:46:56;4.50;;;3.80;;
22955;SDS011;40888;48.148;11.526;2023-04-30T12:49:27;3.75;;;3.45;;
22955;SDS011;40888;48.148;11.526;2023-04-30T12:52:05;4.10;;;3.35;;
22955;SDS011;40888;48.148;11.526;2023-04-30T12:54:36;4.88;;;3.35;;
22955;SDS011;40888;48.148;11.526;2023-04-30T12:59:32;4.28;;;3.45;;
22955;SDS011;40888;48.148;11.526;2023-04-30T13:04:41;5.10;;;3.97;;
22955;SDS011;40888;48.148;11.526;2023-04-30T13:07:07;4.10;;;3.70;;
22955;SDS011;40888;48.148;11.526;2023-04-30T13:09:35;3.38;;;3.08;;
22955;SDS011;40888;48.148;11.526;2023-04-30T13:12:01;3.97;;;2.90;;
22955;SDS011;40888;48.148;11.526;2023-04-30T13:14:28;5.32;;;3.13;;
22955;SDS011;40888;48.148;11.526;2023-04-30T13:16:55;3.55;;;3.25;;
22955;SDS011;40888;48.148;11.526;2023-04-30T13:19:20;5.60;;;3.10;;
22955;SDS011;40888;48.148;11.526;2023-04-30T13:21:46;2.75;;;2.55;;
22955;SDS011;40888;48.148;11.526;2023-04-30T13:24:12;2.63;;;2.45;;
22955;SDS011;40888;48.148;11.526;2023-04-30T13:26:38;2.95;;;2.70;;
22955;SDS011;40888;48.148;11.526;2023-04-30T13:29:04;3.00;;;2.80;;
22955;SDS011;40888;48.148;11.526;2023-04-30T13:31:30;3.13;;;2.85;;
22955;SDS011;40888;48.148;11.526;2023-04-30T13:33:56;3.38;;;3.08;;
22955;SDS011;40888;48.148;11.526;2023-04-30T13:36:22;4.55;;;3.17;;
22955;SDS011;40888;48.148;11.526;2023-04-30T13:38:48;3.20;;;2.80;;
22955;SDS011;40888;48.148;11.526;2023-04-30T13:41:13;3.00;;;2.80;;
22955;SDS011;40888;48.148;11.526;2023-04-30T13:43:39;3.35;;;2.60;;
22955;SDS011;40888;48.148;11.526;2023-04-30T13:46:09;2.72;;;2.42;;
22955;SDS011;40888;48.148;11.526;2023-04-30T13:48:35;3.97;;;2.42;;
22955;SDS011;40888;48.148;11.526;2023-04-30T13:51:00;2.50;;;2.30;;
22955;SDS011;40888;48.148;11.526;2023-04-30T13:53:26;2.80;;;2.60;;
22955;SDS011;40888;48.148;11.526;2023-04-30T13:55:52;2.78;;;2.58;;
22955;SDS011;40888;48.148;11.526;2023-04-30T13:58:18;2.65;;;2.45;;
22955;SDS011;40888;48.148;11.526;2023-04-30T14:00:44;4.40;;;3.00;;
22955;SDS011;40888;48.148;11.526;2023-04-30T14:03:10;3.03;;;2.53;;
22955;SDS011;40888;48.148;11.526;2023-04-30T14:05:36;3.45;;;2.60;;
22955;SDS011;40888;48.148;11.526;2023-04-30T14:08:03;2.33;;;2.13;;
22955;SDS011;40888;48.148;11.526;2023-04-30T14:10:30;6.05;;;2.90;;
22955;SDS011;40888;48.148;11.526;2023-04-30T14:12:56;3.65;;;3.00;;
22955;SDS011;40888;48.148;11.526;2023-04-30T14:15:22;3.40;;;2.33;;
22955;SDS011;40888;48.148;11.526;2023-04-30T14:17:49;3.15;;;2.13;;
22955;SDS011;40888;48.148;11.526;2023-04-30T14:20:15;2.50;;;2.30;;
22955;SDS011;40888;48.148;11.526;2023-04-30T14:22:41;2.70;;;2.50;;
22955;SDS011;40888;48.148;11.526;2023-04-30T14:25:07;2.67;;;2.47;;
22955;SDS011;40888;48.148;11.526;2023-04-30T14:27:33;3.10;;;2.63;;
22955;SDS011;40888;48.148;11.526;2023-04-30T14:29:59;3.60;;;2.22;;
22955;SDS011;40888;48.148;11.526;2023-04-30T14:32:25;2.50;;;2.30;;
22955;SDS011;40888;48.148;11.526;2023-04-30T14:34:52;3.75;;;2.70;;
22955;SDS011;40888;48.148;11.526;2023-04-30T14:37:18;2.80;;;2.60;;
22955;SDS011;40888;48.148;11.526;2023-04-30T14:39:44;3.88;;;2.70;;
22955;SDS011;40888;48.148;11.526;2023-04-30T14:42:10;2.42;;;2.22;;
22955;SDS011;40888;48.148;11.526;2023-04-30T14:44:36;2.40;;;2.20;;
22955;SDS011;40888;48.148;11.526;2023-04-30T14:47:02;2.58;;;2.38;;
22955;SDS011;40888;48.148;11.526;2023-04-30T14:49:28;3.22;;;2.45;;
22955;SDS011;40888;48.148;11.526;2023-04-30T14:51:55;2.50;;;2.30;;
22955;SDS011;40888;48.148;11.526;2023-04-30T14:54:21;2.80;;;2.42;;
22955;SDS011;40888;48.148;11.526;2023-04-30T14:56:47;4.00;;;2.65;;
22955;SDS011;40888;48.148;11.526;2023-04-30T14:59:13;3.30;;;2.50;;
22955;SDS011;40888;48.148;11.526;2023-04-30T15:01:39;3.42;;;2.80;;
22955;SDS011;40888;48.148;11.526;2023-04-30T15:04:05;4.63;;;2.67;;